X  Blizu METAR Podaci o vazduhoplovstvu     KBDL Bradley International Airport
Temperatura
88°F Temperatura
73°F Tačka Rose
62% Vlaga



Vetar
8 MPS
13 KM/S
4 M/S
7 Čvorovi



200°
JJZ
Trenutna situacija

Delimično oblačno Delimično oblačno
Vazdušni pritisak 1011.85 (hPa) - 29.88 (inHg)
Vidljivost 10 (Milje) - 16.1 (km)
Aerodrom
Aerodromski kod. KBDL

Lokacija: Bradley International Airport
Udaljenost: 21 (mi)

Metar:
KBDL 151351Z 20007KT 10SM FEW100 FEW250 31/23 A2988 RMK AO2 SLP117 T03060228

Vreme: 07-15-2024 9:51 am EDT